createdAt,value
2023-05-07T00:00:30.710Z,15.49
2023-05-07T00:01:30.729Z,15.50
2023-05-07T00:02:30.776Z,15.47
2023-05-07T00:03:30.934Z,15.49
2023-05-07T00:04:30.704Z,15.50
2023-05-07T00:05:30.671Z,15.47
2023-05-07T00:06:30.628Z,15.46
2023-05-07T00:07:30.635Z,15.46
2023-05-07T00:08:30.647Z,15.43
2023-05-07T00:09:30.620Z,15.44
2023-05-07T00:10:30.592Z,15.39
2023-05-07T00:11:30.593Z,15.38
2023-05-07T00:12:30.547Z,15.38
2023-05-07T00:13:30.545Z,15.36
2023-05-07T00:14:30.525Z,15.36
2023-05-07T00:15:30.522Z,15.34
2023-05-07T00:16:30.602Z,15.35
2023-05-07T00:17:30.535Z,15.36
2023-05-07T00:18:30.482Z,15.41
2023-05-07T00:19:30.475Z,15.43
2023-05-07T00:20:30.428Z,15.41
2023-05-07T00:21:30.441Z,15.38
2023-05-07T00:22:30.406Z,15.38
2023-05-07T00:23:30.401Z,15.38
2023-05-07T00:24:30.389Z,15.43
2023-05-07T00:25:30.400Z,15.39
2023-05-07T00:26:30.376Z,15.39
2023-05-07T00:27:30.335Z,15.38
2023-05-07T00:28:30.317Z,15.36
2023-05-07T00:29:30.329Z,15.35
2023-05-07T00:30:30.302Z,15.32
2023-05-07T00:31:30.382Z,15.32
2023-05-07T00:32:30.428Z,15.29
2023-05-07T00:33:30.288Z,15.25
2023-05-07T00:34:30.249Z,15.20
2023-05-07T00:35:30.250Z,15.21
2023-05-07T00:36:30.227Z,15.17
2023-05-07T00:37:30.274Z,15.20
2023-05-07T00:38:30.210Z,15.20
2023-05-07T00:39:30.198Z,15.19
2023-05-07T00:40:30.171Z,15.16
2023-05-07T00:41:30.171Z,15.13
2023-05-07T00:42:30.137Z,15.10
2023-05-07T00:43:30.151Z,15.07
2023-05-07T00:44:30.120Z,15.06
2023-05-07T00:45:30.196Z,15.07
2023-05-07T00:46:30.240Z,15.03
2023-05-07T00:47:30.167Z,14.99
2023-05-07T00:48:30.079Z,15.01
2023-05-07T00:49:30.046Z,14.99
2023-05-07T00:50:30.048Z,14.98
2023-05-07T00:51:30.035Z,14.96
2023-05-07T00:52:30.045Z,14.94
2023-05-07T00:53:30.025Z,14.92
2023-05-07T00:54:29.972Z,14.91
2023-05-07T00:55:29.976Z,14.88
2023-05-07T00:56:30.001Z,14.89
2023-05-07T00:57:29.993Z,14.89
2023-05-07T00:58:29.918Z,14.89
2023-05-07T00:59:29.998Z,14.89
2023-05-07T01:00:29.898Z,14.88
2023-05-07T01:01:29.927Z,14.86
2023-05-07T01:02:29.904Z,14.84
2023-05-07T01:03:29.981Z,14.88
2023-05-07T01:04:29.914Z,14.86
2023-05-07T01:05:29.827Z,14.84
2023-05-07T01:06:29.813Z,14.84
2023-05-07T01:07:29.806Z,14.84
2023-05-07T01:08:29.785Z,14.83
2023-05-07T01:09:29.832Z,14.81
2023-05-07T01:10:29.758Z,14.77
2023-05-07T01:11:29.777Z,14.78
2023-05-07T01:12:29.732Z,14.80
2023-05-07T01:13:29.742Z,14.81
2023-05-07T01:14:29.687Z,14.80
2023-05-07T01:15:29.692Z,14.83
2023-05-07T01:16:29.725Z,14.84
2023-05-07T01:17:29.693Z,14.84
2023-05-07T01:18:29.670Z,14.88
2023-05-07T01:19:29.641Z,14.89
2023-05-07T01:20:29.645Z,14.88
2023-05-07T01:21:29.628Z,14.89
2023-05-07T01:22:29.581Z,14.91
2023-05-07T01:23:29.641Z,14.89
2023-05-07T01:24:29.581Z,14.91
2023-05-07T01:25:37.076Z,14.86
2023-05-07T01:26:29.537Z,14.88
2023-05-07T01:27:29.554Z,14.88
2023-05-07T01:28:29.521Z,14.86
2023-05-07T01:29:29.526Z,14.86
2023-05-07T01:30:29.531Z,14.88
2023-05-07T01:31:29.525Z,14.88
2023-05-07T01:32:29.463Z,14.88
2023-05-07T01:33:29.447Z,14.89
2023-05-07T01:34:29.443Z,14.88
2023-05-07T01:35:29.470Z,14.91
2023-05-07T01:36:29.432Z,14.89
2023-05-07T01:37:29.370Z,14.86
2023-05-07T01:38:29.361Z,14.86
2023-05-07T01:39:29.390Z,14.88
2023-05-07T01:40:29.371Z,14.84
2023-05-07T01:41:29.378Z,14.83
2023-05-07T01:42:29.342Z,14.83
2023-05-07T01:43:29.335Z,14.83
2023-05-07T01:44:29.321Z,14.84
2023-05-07T01:45:29.369Z,14.83
2023-05-07T01:46:29.262Z,14.81
2023-05-07T01:47:29.285Z,14.81
2023-05-07T01:48:29.230Z,14.78
2023-05-07T01:49:29.239Z,14.80
2023-05-07T01:50:29.202Z,14.78
2023-05-07T01:51:29.206Z,14.80
2023-05-07T01:52:29.195Z,14.80
2023-05-07T01:53:29.190Z,14.77
2023-05-07T01:54:29.162Z,14.77
2023-05-07T01:55:29.175Z,14.75
2023-05-07T01:56:29.134Z,14.73
2023-05-07T01:57:29.133Z,14.73
2023-05-07T01:58:29.109Z,14.75
2023-05-07T01:59:29.077Z,14.72
2023-05-07T02:00:29.080Z,14.72
2023-05-07T02:01:29.186Z,14.72
2023-05-07T02:02:29.078Z,14.70
2023-05-07T02:03:29.137Z,14.72
2023-05-07T02:04:29.034Z,14.70
2023-05-07T02:05:29.053Z,14.72
2023-05-07T02:06:28.975Z,14.72
2023-05-07T02:07:29.005Z,14.72
2023-05-07T02:08:28.954Z,14.73
2023-05-07T02:09:28.945Z,14.70
2023-05-07T02:10:28.970Z,14.72
2023-05-07T02:11:28.923Z,14.73
2023-05-07T02:12:28.901Z,14.73
2023-05-07T02:13:28.933Z,14.73
2023-05-07T02:14:28.887Z,14.72
2023-05-07T02:15:28.886Z,14.72
2023-05-07T02:16:28.924Z,14.72
2023-05-07T02:17:28.882Z,14.72
2023-05-07T02:18:28.847Z,14.69
2023-05-07T02:19:28.818Z,14.70
2023-05-07T02:20:28.819Z,14.69
2023-05-07T02:21:30.596Z,14.70
2023-05-07T02:22:28.784Z,14.68
2023-05-07T02:23:28.781Z,14.65
2023-05-07T02:24:28.778Z,14.64
2023-05-07T02:25:28.789Z,14.68
2023-05-07T02:26:28.766Z,14.64
2023-05-07T02:27:28.715Z,14.62
2023-05-07T02:28:28.696Z,14.62
2023-05-07T02:29:28.677Z,14.60
2023-05-07T02:30:28.668Z,14.62
2023-05-07T02:31:28.731Z,14.61
2023-05-07T02:32:28.708Z,14.62
2023-05-07T02:33:28.634Z,14.62
2023-05-07T02:34:28.633Z,14.61
2023-05-07T02:35:28.619Z,14.61
2023-05-07T02:36:28.573Z,14.60
2023-05-07T02:37:28.598Z,14.57
2023-05-07T02:38:28.574Z,14.58
2023-05-07T02:39:28.580Z,14.60
2023-05-07T02:40:28.558Z,14.57
2023-05-07T02:41:28.528Z,14.55
2023-05-07T02:42:28.494Z,14.54
2023-05-07T02:43:28.483Z,14.54
2023-05-07T02:44:28.478Z,14.54
2023-05-07T02:45:28.619Z,14.54
2023-05-07T02:46:28.554Z,14.52
2023-05-07T02:47:28.479Z,14.52
2023-05-07T02:48:28.425Z,14.52
2023-05-07T02:49:28.410Z,14.52
2023-05-07T02:50:28.490Z,14.52
2023-05-07T02:51:28.397Z,14.52
2023-05-07T02:52:28.369Z,14.51
2023-05-07T02:53:28.381Z,14.52
2023-05-07T02:54:28.330Z,14.51
2023-05-07T02:55:28.354Z,14.51
2023-05-07T02:56:28.372Z,14.50
2023-05-07T02:57:28.301Z,14.46
2023-05-07T02:58:28.294Z,14.47
2023-05-07T02:59:28.272Z,14.45
2023-05-07T03:00:28.305Z,14.43
2023-05-07T03:01:28.288Z,14.45
2023-05-07T03:02:28.296Z,14.45
2023-05-07T03:03:28.233Z,14.46
2023-05-07T03:04:28.256Z,14.45
2023-05-07T03:05:28.233Z,14.45
2023-05-07T03:06:28.190Z,14.46
2023-05-07T03:07:28.173Z,14.42
2023-05-07T03:08:28.185Z,14.42
2023-05-07T03:09:28.165Z,14.40
2023-05-07T03:10:28.175Z,14.40
2023-05-07T03:11:28.115Z,14.39
2023-05-07T03:12:28.161Z,14.37
2023-05-07T03:13:28.130Z,14.35
2023-05-07T03:14:28.046Z,14.37
2023-05-07T03:15:28.042Z,14.37
2023-05-07T03:16:28.067Z,14.37
2023-05-07T03:17:28.051Z,14.37
2023-05-07T03:18:28.073Z,14.36
2023-05-07T03:19:28.046Z,14.37
2023-05-07T03:20:28.001Z,14.36
2023-05-07T03:21:28.000Z,14.37
2023-05-07T03:22:28.080Z,14.37
2023-05-07T03:23:28.028Z,14.39
2023-05-07T03:24:27.939Z,14.39
2023-05-07T03:25:27.922Z,14.36
2023-05-07T03:26:27.936Z,14.33
2023-05-07T03:27:27.893Z,14.32
2023-05-07T03:28:27.887Z,14.35
2023-05-07T03:29:27.896Z,14.36
2023-05-07T03:30:27.861Z,14.36
2023-05-07T03:31:27.911Z,14.37
2023-05-07T03:32:27.852Z,14.37
2023-05-07T03:33:27.808Z,14.39
2023-05-07T03:34:27.855Z,14.36
2023-05-07T03:35:27.785Z,14.39
2023-05-07T03:36:27.844Z,14.36
2023-05-07T03:37:27.775Z,14.37
2023-05-07T03:38:27.760Z,14.36
2023-05-07T03:39:27.706Z,14.36
2023-05-07T03:40:27.765Z,14.36
2023-05-07T03:41:27.747Z,14.32
2023-05-07T03:42:27.691Z,14.32
2023-05-07T03:43:27.692Z,14.29
2023-05-07T03:44:27.726Z,14.28
2023-05-07T03:45:27.699Z,14.28
2023-05-07T03:46:27.843Z,14.27
2023-05-07T03:47:27.702Z,14.27
2023-05-07T03:48:27.593Z,14.25
2023-05-07T03:49:27.593Z,14.27
2023-05-07T03:50:27.575Z,14.25
2023-05-07T03:51:27.564Z,14.22
2023-05-07T03:52:27.591Z,14.22
2023-05-07T03:53:27.550Z,14.25
2023-05-07T03:54:27.576Z,14.22
2023-05-07T03:55:27.503Z,14.22
2023-05-07T03:56:27.692Z,14.24
2023-05-07T03:57:27.477Z,14.22
2023-05-07T03:58:27.482Z,14.25
2023-05-07T03:59:27.520Z,14.25
2023-05-07T04:00:27.451Z,14.22
2023-05-07T04:01:27.422Z,14.24
2023-05-07T04:02:27.487Z,14.22
2023-05-07T04:03:27.476Z,14.21
2023-05-07T04:04:27.403Z,14.22
2023-05-07T04:05:27.382Z,14.22
2023-05-07T04:06:27.375Z,14.24
2023-05-07T04:07:27.381Z,14.21
2023-05-07T04:08:27.323Z,14.21
2023-05-07T04:09:27.311Z,14.20
2023-05-07T04:10:27.354Z,14.21
2023-05-07T04:11:27.312Z,14.22
2023-05-07T04:12:27.337Z,14.21
2023-05-07T04:13:27.300Z,14.20
2023-05-07T04:14:27.252Z,14.18
2023-05-07T04:15:27.270Z,14.22
2023-05-07T04:16:27.260Z,14.18
2023-05-07T04:17:27.215Z,14.20
2023-05-07T04:18:27.197Z,14.18
2023-05-07T04:19:27.176Z,14.20
2023-05-07T04:20:27.154Z,14.21
2023-05-07T04:21:27.160Z,14.24
2023-05-07T04:22:27.135Z,14.25
2023-05-07T04:23:27.112Z,14.27
2023-05-07T04:24:27.138Z,14.27
2023-05-07T04:25:27.115Z,14.28
2023-05-07T04:26:27.109Z,14.27
2023-05-07T04:27:27.163Z,14.28
2023-05-07T04:28:27.089Z,14.28
2023-05-07T04:29:27.044Z,14.29
2023-05-07T04:30:27.041Z,14.28
2023-05-07T04:31:27.049Z,14.29
2023-05-07T04:32:27.058Z,14.33
2023-05-07T04:33:27.002Z,14.29
2023-05-07T04:34:26.983Z,14.33
2023-05-07T04:35:26.981Z,14.33
2023-05-07T04:36:26.983Z,14.36
2023-05-07T04:37:26.915Z,14.37
2023-05-07T04:38:26.916Z,14.36
2023-05-07T04:39:26.914Z,14.39
2023-05-07T04:40:26.885Z,14.37
2023-05-07T04:41:26.916Z,14.36
2023-05-07T04:42:26.881Z,14.39
2023-05-07T04:43:26.844Z,14.37
2023-05-07T04:44:26.830Z,14.39
2023-05-07T04:45:26.829Z,14.39
2023-05-07T04:46:26.877Z,14.39
2023-05-07T04:47:26.854Z,14.40
2023-05-07T04:48:26.809Z,14.42
2023-05-07T04:49:26.766Z,14.42
2023-05-07T04:50:26.770Z,14.43
2023-05-07T04:51:26.740Z,14.45
2023-05-07T04:52:27.402Z,14.43
2023-05-07T04:53:26.716Z,14.43
2023-05-07T04:54:26.703Z,14.42
2023-05-07T04:55:26.694Z,14.43
2023-05-07T04:56:26.694Z,14.43
2023-05-07T04:57:26.699Z,14.45
2023-05-07T04:58:26.639Z,14.43
2023-05-07T04:59:26.630Z,14.42
2023-05-07T05:00:26.638Z,14.42
2023-05-07T05:01:26.649Z,14.43
2023-05-07T05:02:26.600Z,14.40
2023-05-07T05:03:26.730Z,14.42
2023-05-07T05:04:26.562Z,14.40
2023-05-07T05:05:26.573Z,14.43
2023-05-07T05:06:26.523Z,14.42
2023-05-07T05:07:26.505Z,14.42
2023-05-07T05:08:26.501Z,14.43
2023-05-07T05:09:26.532Z,14.45
2023-05-07T05:10:26.490Z,14.42
2023-05-07T05:11:26.473Z,14.43
2023-05-07T05:12:26.477Z,14.46
2023-05-07T05:13:26.538Z,14.46
2023-05-07T05:14:26.425Z,14.46
2023-05-07T05:15:26.437Z,14.46
2023-05-07T05:16:26.415Z,14.45
2023-05-07T05:17:26.400Z,14.46
2023-05-07T05:18:26.410Z,14.47
2023-05-07T05:19:26.350Z,14.46
2023-05-07T05:20:26.374Z,14.51
2023-05-07T05:21:26.358Z,14.50
2023-05-07T05:22:26.379Z,14.50
2023-05-07T05:23:26.300Z,14.50
2023-05-07T05:24:26.279Z,14.52
2023-05-07T05:25:26.267Z,14.60
2023-05-07T05:26:26.288Z,14.68
2023-05-07T05:27:26.250Z,14.69
2023-05-07T05:28:26.302Z,14.77
2023-05-07T05:29:26.242Z,14.89
2023-05-07T05:30:26.225Z,14.95
2023-05-07T05:31:26.219Z,14.95
2023-05-07T05:32:26.242Z,15.06
2023-05-07T05:33:26.173Z,15.17
2023-05-07T05:34:26.146Z,15.36
2023-05-07T05:35:26.113Z,15.47
2023-05-07T05:36:26.133Z,15.49
2023-05-07T05:37:26.118Z,15.57
2023-05-07T05:38:26.146Z,15.53
2023-05-07T05:39:26.151Z,15.54
2023-05-07T05:40:26.083Z,15.59
2023-05-07T05:41:26.079Z,15.67
2023-05-07T05:42:26.051Z,15.51
2023-05-07T05:43:26.067Z,15.38
2023-05-07T05:44:26.039Z,15.31
2023-05-07T05:45:26.012Z,15.32
2023-05-07T05:46:26.021Z,15.34
2023-05-07T05:47:26.042Z,15.34
2023-05-07T05:48:25.956Z,15.39
2023-05-07T05:49:26.018Z,15.44
2023-05-07T05:50:25.955Z,15.46
2023-05-07T05:51:25.934Z,15.53
2023-05-07T05:52:25.935Z,15.65
2023-05-07T05:53:25.893Z,15.68
2023-05-07T05:54:25.890Z,15.60
2023-05-07T05:55:25.890Z,15.65
2023-05-07T05:56:25.854Z,15.74
2023-05-07T05:57:26.699Z,15.80
2023-05-07T05:58:25.833Z,15.86
2023-05-07T05:59:25.925Z,15.89
2023-05-07T06:00:25.812Z,15.96
2023-05-07T06:01:25.799Z,16.05
2023-05-07T06:02:25.930Z,16.14
2023-05-07T06:03:25.857Z,16.23
2023-05-07T06:04:25.766Z,16.28
2023-05-07T06:05:25.799Z,16.30
2023-05-07T06:06:25.723Z,16.31
2023-05-07T06:07:25.691Z,16.34
2023-05-07T06:08:25.717Z,16.39
2023-05-07T06:09:25.682Z,16.45
2023-05-07T06:10:25.688Z,16.52
2023-05-07T06:11:25.676Z,16.56
2023-05-07T06:12:25.652Z,16.61
2023-05-07T06:13:26.806Z,16.64
2023-05-07T06:14:25.623Z,16.68
2023-05-07T06:15:25.608Z,16.71
2023-05-07T06:16:25.612Z,16.71
2023-05-07T06:17:25.601Z,16.75
2023-05-07T06:18:25.570Z,16.79
2023-05-07T06:19:25.550Z,16.73
2023-05-07T06:20:25.601Z,16.71
2023-05-07T06:21:25.562Z,16.73
2023-05-07T06:22:25.603Z,16.75
2023-05-07T06:23:25.526Z,16.71
2023-05-07T06:24:25.466Z,16.73
2023-05-07T06:25:25.467Z,16.71
2023-05-07T06:26:25.469Z,16.71
2023-05-07T06:27:25.465Z,16.71
2023-05-07T06:28:25.441Z,16.73
2023-05-07T06:29:25.407Z,16.73
2023-05-07T06:30:25.402Z,16.76
2023-05-07T06:31:25.421Z,16.78
2023-05-07T06:32:25.439Z,16.78
2023-05-07T06:33:25.369Z,16.76
2023-05-07T06:34:25.414Z,16.78
2023-05-07T06:35:25.313Z,16.81
2023-05-07T06:36:25.310Z,16.78
2023-05-07T06:37:25.286Z,16.68
2023-05-07T06:38:25.384Z,16.61
2023-05-07T06:39:25.262Z,16.57
2023-05-07T06:40:25.258Z,16.46
2023-05-07T06:41:25.299Z,16.43
2023-05-07T06:42:25.265Z,16.43
2023-05-07T06:43:25.226Z,16.43
2023-05-07T06:44:25.209Z,16.45
2023-05-07T06:45:25.191Z,16.50
2023-05-07T06:46:25.256Z,16.58
2023-05-07T06:47:25.184Z,16.63
2023-05-07T06:48:25.187Z,16.71
2023-05-07T06:49:25.125Z,16.81
2023-05-07T06:50:25.143Z,16.88
2023-05-07T06:51:25.121Z,16.97
2023-05-07T06:52:25.123Z,17.06
2023-05-07T06:53:25.070Z,17.15
2023-05-07T06:54:25.069Z,17.26
2023-05-07T06:55:25.048Z,17.34
2023-05-07T06:56:25.082Z,17.38
2023-05-07T06:57:25.011Z,17.36
2023-05-07T06:58:25.016Z,17.41
2023-05-07T06:59:25.008Z,17.46
2023-05-07T07:00:24.985Z,17.48
2023-05-07T07:01:24.977Z,17.48
2023-05-07T07:02:25.054Z,17.44
2023-05-07T07:03:24.929Z,17.40
2023-05-07T07:04:24.976Z,17.37
2023-05-07T07:05:24.957Z,17.36
2023-05-07T07:06:24.946Z,17.36
2023-05-07T07:07:24.906Z,17.34
2023-05-07T07:08:24.929Z,17.37
2023-05-07T07:09:26.296Z,17.38
2023-05-07T07:10:24.874Z,17.41
2023-05-07T07:11:24.885Z,17.37
2023-05-07T07:12:24.830Z,17.36
2023-05-07T07:13:24.902Z,17.38
2023-05-07T07:14:24.826Z,17.44
2023-05-07T07:15:24.777Z,17.51
2023-05-07T07:16:24.766Z,17.58
2023-05-07T07:17:24.770Z,17.63
2023-05-07T07:18:24.756Z,17.70
2023-05-07T07:19:24.722Z,17.72
2023-05-07T07:20:24.898Z,17.75
2023-05-07T07:21:24.703Z,17.82
2023-05-07T07:22:24.667Z,17.84
2023-05-07T07:23:24.695Z,17.93
2023-05-07T07:24:24.660Z,17.93
2023-05-07T07:25:24.638Z,17.99
2023-05-07T07:26:24.646Z,18.00
2023-05-07T07:27:24.646Z,18.05
2023-05-07T07:28:24.633Z,18.08
2023-05-07T07:29:24.566Z,18.02
2023-05-07T07:30:24.741Z,18.03
2023-05-07T07:31:24.597Z,18.05
2023-05-07T07:32:24.593Z,18.08
2023-05-07T07:33:24.544Z,18.10
2023-05-07T07:34:24.504Z,18.14
2023-05-07T07:35:25.722Z,18.15
2023-05-07T07:36:29.494Z,18.29
2023-05-07T07:37:25.535Z,18.36
2023-05-07T07:38:24.515Z,18.45
2023-05-07T07:39:24.458Z,18.62
2023-05-07T07:40:24.631Z,18.73
2023-05-07T07:41:24.420Z,18.78
2023-05-07T07:42:24.403Z,18.78
2023-05-07T07:43:24.464Z,18.80
2023-05-07T07:44:24.396Z,18.75
2023-05-07T07:45:24.374Z,18.81
2023-05-07T07:46:24.391Z,18.78
2023-05-07T07:47:24.375Z,18.75
2023-05-07T07:48:24.343Z,18.70
2023-05-07T07:49:24.361Z,18.73
2023-05-07T07:50:35.950Z,18.72
2023-05-07T07:51:25.274Z,18.80
2023-05-07T07:52:24.292Z,18.72
2023-05-07T07:53:24.266Z,18.67
2023-05-07T07:54:24.284Z,18.65
2023-05-07T07:55:24.276Z,18.62
2023-05-07T07:56:24.215Z,18.57
2023-05-07T07:57:24.228Z,18.45
2023-05-07T07:58:24.232Z,18.39
2023-05-07T07:59:24.225Z,18.30
2023-05-07T08:00:24.183Z,18.29
2023-05-07T08:01:24.162Z,18.27
2023-05-07T08:02:24.299Z,18.25
2023-05-07T08:03:24.206Z,18.36
2023-05-07T08:04:24.195Z,18.44
2023-05-07T08:05:24.134Z,18.52
2023-05-07T08:06:24.102Z,18.54
2023-05-07T08:07:24.131Z,18.66
2023-05-07T08:08:24.060Z,18.78
2023-05-07T08:09:24.075Z,18.76
2023-05-07T08:10:24.065Z,18.85
2023-05-07T08:11:24.091Z,19.00
2023-05-07T08:12:24.105Z,19.32
2023-05-07T08:13:24.104Z,19.58
2023-05-07T08:14:24.073Z,19.46
2023-05-07T08:15:24.057Z,19.46
2023-05-07T08:16:24.359Z,19.48
2023-05-07T08:17:24.004Z,19.54
2023-05-07T08:18:23.941Z,19.54
2023-05-07T08:19:23.955Z,19.55
2023-05-07T08:20:23.911Z,19.51
2023-05-07T08:21:23.894Z,19.56
2023-05-07T08:22:23.878Z,19.58
2023-05-07T08:23:23.868Z,19.59
2023-05-07T08:24:23.864Z,19.63
2023-05-07T08:25:23.882Z,19.61
2023-05-07T08:26:23.885Z,19.59
2023-05-07T08:27:23.813Z,19.56
2023-05-07T08:28:23.827Z,19.55
2023-05-07T08:29:23.809Z,19.47
2023-05-07T08:30:23.788Z,19.46
2023-05-07T08:31:23.837Z,19.36
2023-05-07T08:32:23.774Z,19.28
2023-05-07T08:33:23.763Z,19.22
2023-05-07T08:34:23.772Z,19.25
2023-05-07T08:35:23.729Z,19.22
2023-05-07T08:36:23.713Z,19.18
2023-05-07T08:37:23.676Z,19.13
2023-05-07T08:38:23.676Z,19.07
2023-05-07T08:39:23.683Z,19.02
2023-05-07T08:40:23.611Z,19.02
2023-05-07T08:41:23.724Z,19.06
2023-05-07T08:42:23.685Z,19.07
2023-05-07T08:43:23.614Z,19.11
2023-05-07T08:44:23.584Z,19.10
2023-05-07T08:45:23.588Z,19.11
2023-05-07T08:46:23.558Z,19.13
2023-05-07T08:47:23.572Z,19.04
2023-05-07T08:48:23.548Z,19.00
2023-05-07T08:49:23.533Z,19.04
2023-05-07T08:50:23.586Z,19.13
2023-05-07T08:51:23.487Z,19.26
2023-05-07T08:52:23.456Z,19.36
2023-05-07T08:53:23.450Z,19.44
2023-05-07T08:54:23.427Z,19.58
2023-05-07T08:55:23.426Z,19.58
2023-05-07T08:56:23.445Z,19.51
2023-05-07T08:57:23.413Z,19.55
2023-05-07T08:58:23.384Z,19.68
2023-05-07T08:59:23.387Z,19.78
2023-05-07T09:00:23.388Z,19.84
2023-05-07T09:01:23.446Z,19.80
2023-05-07T09:02:23.504Z,19.80
2023-05-07T09:03:23.442Z,20.03
2023-05-07T09:04:23.307Z,20.36
2023-05-07T09:05:23.317Z,20.50
2023-05-07T09:06:23.272Z,20.33
2023-05-07T09:07:23.275Z,20.42
2023-05-07T09:08:23.274Z,20.50
2023-05-07T09:09:23.248Z,20.73
2023-05-07T09:10:23.287Z,20.77
2023-05-07T09:11:23.199Z,20.73
2023-05-07T09:12:23.175Z,20.54
2023-05-07T09:13:23.394Z,20.26
2023-05-07T09:14:23.165Z,20.38
2023-05-07T09:15:23.204Z,20.41
2023-05-07T09:16:23.247Z,20.52
2023-05-07T09:17:23.162Z,20.58
2023-05-07T09:18:23.125Z,20.42
2023-05-07T09:19:23.139Z,20.43
2023-05-07T09:20:23.088Z,20.42
2023-05-07T09:21:23.101Z,20.47
2023-05-07T09:22:23.108Z,20.54
2023-05-07T09:23:23.074Z,20.52
2023-05-07T09:24:23.031Z,20.48
2023-05-07T09:25:23.058Z,20.54
2023-05-07T09:26:23.013Z,20.69
2023-05-07T09:27:23.014Z,20.80
2023-05-07T09:28:23.181Z,20.95
2023-05-07T09:29:22.963Z,21.07
2023-05-07T09:30:23.065Z,20.99
2023-05-07T09:31:22.978Z,21.14
2023-05-07T09:32:22.965Z,21.37
2023-05-07T09:33:22.914Z,21.52
2023-05-07T09:34:22.907Z,21.82
2023-05-07T09:35:22.900Z,21.99
2023-05-07T09:36:22.864Z,22.02
2023-05-07T09:37:22.870Z,21.91
2023-05-07T09:38:22.845Z,21.47
2023-05-07T09:39:22.844Z,21.47
2023-05-07T09:40:22.818Z,21.50
2023-05-07T09:41:22.852Z,21.65
2023-05-07T09:42:22.786Z,21.86
2023-05-07T09:43:22.771Z,21.82
2023-05-07T09:44:22.799Z,21.54
2023-05-07T09:45:22.767Z,21.10
2023-05-07T09:46:22.782Z,21.09
2023-05-07T09:47:22.753Z,21.31
2023-05-07T09:48:22.696Z,21.47
2023-05-07T09:49:22.693Z,21.54
2023-05-07T09:50:22.692Z,21.49
2023-05-07T09:51:22.681Z,21.38
2023-05-07T09:52:22.624Z,21.38
2023-05-07T09:53:22.660Z,21.34
2023-05-07T09:54:22.622Z,21.34
2023-05-07T09:55:22.616Z,21.43
2023-05-07T09:56:22.571Z,21.46
2023-05-07T09:57:22.613Z,21.32
2023-05-07T09:58:22.610Z,21.38
2023-05-07T09:59:22.637Z,21.61
2023-05-07T10:00:22.636Z,21.75
2023-05-07T10:01:22.553Z,21.80
2023-05-07T10:02:22.563Z,21.88
2023-05-07T10:03:22.653Z,22.03
2023-05-07T10:04:22.505Z,22.14
2023-05-07T10:05:22.461Z,22.20
2023-05-07T10:06:22.439Z,22.28
2023-05-07T10:07:22.444Z,22.40
2023-05-07T10:08:22.463Z,22.52
2023-05-07T10:09:22.432Z,22.64
2023-05-07T10:10:22.401Z,22.49
2023-05-07T10:11:22.397Z,22.30
2023-05-07T10:12:22.366Z,22.43
2023-05-07T10:13:22.572Z,22.54
2023-05-07T10:14:22.346Z,22.67
2023-05-07T10:15:22.339Z,22.70
2023-05-07T10:16:22.365Z,22.75
2023-05-07T10:17:22.402Z,22.64
2023-05-07T10:18:22.366Z,22.47
2023-05-07T10:19:22.301Z,22.52
2023-05-07T10:20:22.273Z,22.64
2023-05-07T10:21:22.246Z,22.85
2023-05-07T10:22:22.301Z,22.92
2023-05-07T10:23:22.251Z,23.01
2023-05-07T10:24:22.256Z,22.88
2023-05-07T10:25:22.211Z,22.54
2023-05-07T10:26:22.219Z,22.52
2023-05-07T10:27:22.220Z,22.62
2023-05-07T10:28:22.182Z,22.70
2023-05-07T10:29:22.150Z,22.70
2023-05-07T10:30:22.144Z,22.61
2023-05-07T10:31:22.165Z,22.68
2023-05-07T10:32:22.132Z,22.77
2023-05-07T10:33:22.096Z,22.91
2023-05-07T10:34:22.069Z,23.13
2023-05-07T10:35:22.096Z,23.31
2023-05-07T10:36:22.049Z,23.40
2023-05-07T10:37:22.047Z,23.33
2023-05-07T10:38:22.054Z,23.38
2023-05-07T10:39:22.030Z,23.40
2023-05-07T10:40:22.031Z,23.46
2023-05-07T10:41:22.012Z,23.53
2023-05-07T10:42:21.973Z,23.60
2023-05-07T10:43:21.960Z,23.70
2023-05-07T10:44:21.985Z,23.72
2023-05-07T10:45:21.960Z,23.68
2023-05-07T10:46:22.069Z,23.61
2023-05-07T10:47:21.913Z,23.55
2023-05-07T10:48:30.178Z,23.54
2023-05-07T10:49:24.631Z,23.47
2023-05-07T10:50:21.914Z,23.54
2023-05-07T10:51:21.925Z,23.46
2023-05-07T10:52:21.850Z,23.39
2023-05-07T10:53:21.868Z,23.36
2023-05-07T10:54:21.831Z,23.40
2023-05-07T10:55:21.795Z,23.55
2023-05-07T10:56:21.802Z,23.68
2023-05-07T10:57:21.782Z,23.88
2023-05-07T10:58:31.543Z,23.73
2023-05-07T10:59:22.774Z,23.79
2023-05-07T11:00:28.068Z,23.73
2023-05-07T11:01:22.820Z,23.58
2023-05-07T11:02:21.709Z,23.32
2023-05-07T11:03:21.709Z,23.07
2023-05-07T11:04:21.678Z,23.01
2023-05-07T11:05:21.725Z,23.07
2023-05-07T11:06:21.654Z,23.12
2023-05-07T11:07:21.638Z,23.15
2023-05-07T11:08:21.677Z,23.17
2023-05-07T11:09:21.608Z,23.02
2023-05-07T11:10:21.590Z,22.90
2023-05-07T11:11:21.620Z,22.72
2023-05-07T11:12:21.559Z,22.57
2023-05-07T11:13:21.713Z,22.46
2023-05-07T11:14:21.533Z,22.54
2023-05-07T11:15:21.602Z,22.62
2023-05-07T11:16:21.584Z,22.70
2023-05-07T11:17:21.490Z,22.80
2023-05-07T11:18:21.492Z,22.86
2023-05-07T11:19:21.514Z,23.01
2023-05-07T11:20:21.475Z,23.28
2023-05-07T11:21:21.474Z,23.55
2023-05-07T11:22:21.429Z,23.84
2023-05-07T11:23:21.408Z,24.06
2023-05-07T11:24:21.510Z,24.10
2023-05-07T11:25:21.400Z,24.02
2023-05-07T11:26:21.453Z,23.91
2023-05-07T11:27:21.383Z,23.88
2023-05-07T11:28:21.336Z,24.03
2023-05-07T11:29:22.995Z,24.15
2023-05-07T11:30:21.345Z,24.40
2023-05-07T11:31:21.380Z,24.60
2023-05-07T11:32:21.307Z,25.08
2023-05-07T11:33:21.283Z,25.00
2023-05-07T11:34:21.272Z,24.52
2023-05-07T11:35:21.257Z,24.35
2023-05-07T11:36:21.252Z,24.09
2023-05-07T11:37:21.345Z,23.73
2023-05-07T11:38:21.259Z,23.31
2023-05-07T11:39:21.248Z,23.54
2023-05-07T11:40:21.223Z,23.94
2023-05-07T11:41:21.166Z,24.13
2023-05-07T11:42:21.144Z,23.57
2023-05-07T11:43:21.193Z,23.68
2023-05-07T11:44:21.131Z,23.65
2023-05-07T11:45:21.138Z,23.73
2023-05-07T11:46:21.185Z,23.61
2023-05-07T11:47:21.278Z,23.40
2023-05-07T11:48:21.101Z,23.48
2023-05-07T11:49:21.077Z,23.57
2023-05-07T11:50:21.057Z,23.63
2023-05-07T11:51:21.040Z,23.66
2023-05-07T11:52:21.050Z,23.69
2023-05-07T11:53:21.014Z,23.66
2023-05-07T11:54:21.035Z,23.57
2023-05-07T11:55:20.986Z,23.63
2023-05-07T11:56:20.989Z,23.83
2023-05-07T11:57:20.989Z,23.98
2023-05-07T11:58:21.021Z,23.70
2023-05-07T11:59:20.931Z,23.55
2023-05-07T12:00:20.940Z,23.57
2023-05-07T12:01:20.930Z,23.69
2023-05-07T12:02:21.022Z,23.73
2023-05-07T12:03:21.014Z,23.72
2023-05-07T12:04:21.084Z,23.79
2023-05-07T12:05:20.878Z,23.84
2023-05-07T12:06:20.880Z,23.76
2023-05-07T12:07:20.873Z,23.66
2023-05-07T12:08:20.829Z,23.61
2023-05-07T12:09:20.803Z,23.53
2023-05-07T12:10:20.797Z,23.31
2023-05-07T12:11:20.783Z,22.98
2023-05-07T12:12:20.835Z,23.01
2023-05-07T12:13:20.879Z,22.98
2023-05-07T12:14:20.782Z,23.02
2023-05-07T12:15:20.777Z,23.02
2023-05-07T12:16:20.807Z,23.05
2023-05-07T12:17:20.690Z,23.04
2023-05-07T12:18:20.702Z,23.02
2023-05-07T12:19:20.771Z,23.01
2023-05-07T12:20:20.653Z,22.97
2023-05-07T12:21:20.684Z,22.97
2023-05-07T12:22:20.637Z,22.97
2023-05-07T12:23:20.603Z,22.91
2023-05-07T12:24:21.802Z,22.80
2023-05-07T12:25:20.573Z,22.79
2023-05-07T12:26:20.560Z,22.82
2023-05-07T12:27:20.594Z,22.70
2023-05-07T12:28:20.544Z,22.68
2023-05-07T12:29:20.550Z,22.58
2023-05-07T12:30:20.532Z,22.60
2023-05-07T12:31:20.541Z,22.62
2023-05-07T12:32:20.576Z,22.62
2023-05-07T12:33:20.513Z,22.64
2023-05-07T12:34:20.507Z,22.65
2023-05-07T12:35:20.498Z,22.67
2023-05-07T12:36:20.420Z,22.60
2023-05-07T12:37:20.417Z,22.61
2023-05-07T12:38:20.411Z,22.62
2023-05-07T12:39:20.415Z,22.67
2023-05-07T12:40:20.394Z,22.70
2023-05-07T12:41:20.372Z,22.73
2023-05-07T12:42:20.375Z,22.70
2023-05-07T12:43:20.380Z,22.73
2023-05-07T12:44:20.318Z,22.80
2023-05-07T12:45:20.342Z,22.77
2023-05-07T12:46:20.360Z,22.75
2023-05-07T12:47:20.392Z,22.72
2023-05-07T12:48:20.308Z,22.54
2023-05-07T12:49:20.259Z,22.45
2023-05-07T12:50:20.277Z,22.36
2023-05-07T12:51:20.241Z,22.37
2023-05-07T12:52:20.242Z,22.37